sensor_id;sensor_type;location;lat;lon;timestamp;P1;durP1;ratioP1;P2;durP2;ratioP2
63975;SDS011;50167;47.958;21.780;2023-01-19T00:00:48;9.57;;;6.60;;
63975;SDS011;50167;47.958;21.780;2023-01-19T00:03:14;13.30;;;7.23;;
63975;SDS011;50167;47.958;21.780;2023-01-19T00:05:42;13.87;;;8.70;;
63975;SDS011;50167;47.958;21.780;2023-01-19T00:08:09;15.97;;;7.83;;
63975;SDS011;50167;47.958;21.780;2023-01-19T00:10:39;10.57;;;6.93;;
63975;SDS011;50167;47.958;21.780;2023-01-19T00:13:09;14.43;;;9.60;;
63975;SDS011;50167;47.958;21.780;2023-01-19T00:15:36;15.23;;;8.80;;
63975;SDS011;50167;47.958;21.780;2023-01-19T00:18:02;11.13;;;7.73;;
63975;SDS011;50167;47.958;21.780;2023-01-19T00:20:29;11.10;;;7.07;;
63975;SDS011;50167;47.958;21.780;2023-01-19T00:22:57;11.83;;;6.87;;
63975;SDS011;50167;47.958;21.780;2023-01-19T00:25:24;8.77;;;6.30;;
63975;SDS011;50167;47.958;21.780;2023-01-19T00:27:50;8.33;;;6.90;;
63975;SDS011;50167;47.958;21.780;2023-01-19T00:30:16;10.57;;;5.73;;
63975;SDS011;50167;47.958;21.780;2023-01-19T00:32:43;10.10;;;6.50;;
63975;SDS011;50167;47.958;21.780;2023-01-19T00:35:09;8.23;;;5.70;;
63975;SDS011;50167;47.958;21.780;2023-01-19T00:37:35;7.60;;;5.63;;
63975;SDS011;50167;47.958;21.780;2023-01-19T00:40:02;7.57;;;6.03;;
63975;SDS011;50167;47.958;21.780;2023-01-19T00:42:28;8.17;;;6.30;;
63975;SDS011;50167;47.958;21.780;2023-01-19T00:45:13;9.53;;;7.17;;
63975;SDS011;50167;47.958;21.780;2023-01-19T00:47:39;10.80;;;7.20;;
63975;SDS011;50167;47.958;21.780;2023-01-19T00:50:07;9.37;;;5.97;;
63975;SDS011;50167;47.958;21.780;2023-01-19T00:52:38;22.63;;;15.97;;
63975;SDS011;50167;47.958;21.780;2023-01-19T00:55:06;12.37;;;9.20;;
63975;SDS011;50167;47.958;21.780;2023-01-19T00:57:35;11.00;;;5.97;;
63975;SDS011;50167;47.958;21.780;2023-01-19T01:00:04;14.00;;;9.53;;
63975;SDS011;50167;47.958;21.780;2023-01-19T01:02:35;11.00;;;7.67;;
63975;SDS011;50167;47.958;21.780;2023-01-19T01:05:04;9.63;;;6.40;;
63975;SDS011;50167;47.958;21.780;2023-01-19T01:07:31;9.20;;;5.63;;
63975;SDS011;50167;47.958;21.780;2023-01-19T01:10:10;7.37;;;5.50;;
63975;SDS011;50167;47.958;21.780;2023-01-19T01:15:07;9.20;;;5.47;;
63975;SDS011;50167;47.958;21.780;2023-01-19T01:17:36;8.17;;;5.97;;
63975;SDS011;50167;47.958;21.780;2023-01-19T01:20:04;13.00;;;6.97;;
63975;SDS011;50167;47.958;21.780;2023-01-19T01:22:31;9.13;;;6.03;;
63975;SDS011;50167;47.958;21.780;2023-01-19T01:24:57;9.47;;;5.93;;
63975;SDS011;50167;47.958;21.780;2023-01-19T01:27:24;10.73;;;6.30;;
63975;SDS011;50167;47.958;21.780;2023-01-19T01:29:50;9.27;;;6.10;;
63975;SDS011;50167;47.958;21.780;2023-01-19T01:32:16;10.77;;;6.20;;
63975;SDS011;50167;47.958;21.780;2023-01-19T01:34:42;8.73;;;5.33;;
63975;SDS011;50167;47.958;21.780;2023-01-19T01:37:08;10.47;;;6.33;;
63975;SDS011;50167;47.958;21.780;2023-01-19T01:39:35;8.90;;;6.00;;
63975;SDS011;50167;47.958;21.780;2023-01-19T01:42:02;9.33;;;5.80;;
63975;SDS011;50167;47.958;21.780;2023-01-19T01:47:35;7.93;;;5.83;;
63975;SDS011;50167;47.958;21.780;2023-01-19T01:55:28;8.47;;;4.57;;
63975;SDS011;50167;47.958;21.780;2023-01-19T01:57:58;9.37;;;4.27;;
63975;SDS011;50167;47.958;21.780;2023-01-19T02:00:29;7.03;;;4.30;;
63975;SDS011;50167;47.958;21.780;2023-01-19T02:02:58;5.03;;;3.70;;
63975;SDS011;50167;47.958;21.780;2023-01-19T02:05:31;5.80;;;3.70;;
63975;SDS011;50167;47.958;21.780;2023-01-19T02:11:10;6.05;;;4.30;;
63975;SDS011;50167;47.958;21.780;2023-01-19T02:13:54;5.33;;;3.30;;
63975;SDS011;50167;47.958;21.780;2023-01-19T02:16:21;3.60;;;3.07;;
63975;SDS011;50167;47.958;21.780;2023-01-19T02:18:48;7.00;;;3.70;;
63975;SDS011;50167;47.958;21.780;2023-01-19T02:21:18;7.63;;;3.53;;
63975;SDS011;50167;47.958;21.780;2023-01-19T02:24:00;4.40;;;3.30;;
63975;SDS011;50167;47.958;21.780;2023-01-19T02:26:32;8.00;;;3.17;;
63975;SDS011;50167;47.958;21.780;2023-01-19T02:29:02;6.20;;;3.10;;
63975;SDS011;50167;47.958;21.780;2023-01-19T02:31:35;3.23;;;2.57;;
63975;SDS011;50167;47.958;21.780;2023-01-19T02:34:04;4.53;;;2.77;;
63975;SDS011;50167;47.958;21.780;2023-01-19T02:36:40;4.20;;;2.83;;
63975;SDS011;50167;47.958;21.780;2023-01-19T02:39:17;5.70;;;2.63;;
63975;SDS011;50167;47.958;21.780;2023-01-19T02:41:48;2.67;;;2.35;;
63975;SDS011;50167;47.958;21.780;2023-01-19T02:44:17;6.15;;;2.92;;
63975;SDS011;50167;47.958;21.780;2023-01-19T02:46:45;5.97;;;2.90;;
63975;SDS011;50167;47.958;21.780;2023-01-19T02:49:12;4.90;;;2.00;;
63975;SDS011;50167;47.958;21.780;2023-01-19T02:51:38;5.80;;;2.00;;
63975;SDS011;50167;47.958;21.780;2023-01-19T02:54:12;2.10;;;1.50;;
63975;SDS011;50167;47.958;21.780;2023-01-19T03:05:25;2.47;;;1.30;;
63975;SDS011;50167;47.958;21.780;2023-01-19T03:13:43;2.53;;;1.83;;
63975;SDS011;50167;47.958;21.780;2023-01-19T03:16:19;2.17;;;1.50;;
63975;SDS011;50167;47.958;21.780;2023-01-19T03:19:16;3.73;;;2.43;;
63975;SDS011;50167;47.958;21.780;2023-01-19T03:21:47;2.83;;;1.87;;
63975;SDS011;50167;47.958;21.780;2023-01-19T03:24:16;2.22;;;1.87;;
63975;SDS011;50167;47.958;21.780;2023-01-19T03:26:48;3.93;;;1.20;;
63975;SDS011;50167;47.958;21.780;2023-01-19T03:29:23;2.33;;;1.20;;
63975;SDS011;50167;47.958;21.780;2023-01-19T03:32:00;3.27;;;1.60;;
63975;SDS011;50167;47.958;21.780;2023-01-19T03:34:30;5.47;;;2.17;;
63975;SDS011;50167;47.958;21.780;2023-01-19T03:36:59;3.33;;;1.60;;
63975;SDS011;50167;47.958;21.780;2023-01-19T03:39:28;3.72;;;1.60;;
63975;SDS011;50167;47.958;21.780;2023-01-19T03:42:00;2.67;;;1.40;;
63975;SDS011;50167;47.958;21.780;2023-01-19T03:44:29;3.20;;;1.60;;
63975;SDS011;50167;47.958;21.780;2023-01-19T03:46:58;2.70;;;1.70;;
63975;SDS011;50167;47.958;21.780;2023-01-19T03:49:29;2.47;;;1.33;;
63975;SDS011;50167;47.958;21.780;2023-01-19T03:51:56;2.43;;;1.43;;
63975;SDS011;50167;47.958;21.780;2023-01-19T03:54:23;1.57;;;1.20;;
63975;SDS011;50167;47.958;21.780;2023-01-19T03:56:50;1.77;;;1.30;;
63975;SDS011;50167;47.958;21.780;2023-01-19T03:59:18;1.73;;;1.30;;
63975;SDS011;50167;47.958;21.780;2023-01-19T04:01:46;4.43;;;1.90;;
63975;SDS011;50167;47.958;21.780;2023-01-19T04:04:13;3.93;;;2.63;;
63975;SDS011;50167;47.958;21.780;2023-01-19T04:06:40;2.37;;;1.53;;
63975;SDS011;50167;47.958;21.780;2023-01-19T04:09:08;4.07;;;2.03;;
63975;SDS011;50167;47.958;21.780;2023-01-19T04:11:34;3.90;;;1.87;;
63975;SDS011;50167;47.958;21.780;2023-01-19T04:14:00;2.40;;;1.40;;
63975;SDS011;50167;47.958;21.780;2023-01-19T04:16:26;3.50;;;1.77;;
63975;SDS011;50167;47.958;21.780;2023-01-19T04:18:53;6.30;;;2.00;;
63975;SDS011;50167;47.958;21.780;2023-01-19T04:21:20;2.30;;;1.63;;
63975;SDS011;50167;47.958;21.780;2023-01-19T04:23:46;2.60;;;1.63;;
63975;SDS011;50167;47.958;21.780;2023-01-19T04:26:14;3.37;;;2.43;;
63975;SDS011;50167;47.958;21.780;2023-01-19T04:28:40;4.53;;;2.27;;
63975;SDS011;50167;47.958;21.780;2023-01-19T04:31:07;2.30;;;1.40;;
63975;SDS011;50167;47.958;21.780;2023-01-19T04:33:34;2.40;;;2.00;;
63975;SDS011;50167;47.958;21.780;2023-01-19T04:36:00;3.43;;;1.67;;
63975;SDS011;50167;47.958;21.780;2023-01-19T04:38:28;1.97;;;1.40;;
63975;SDS011;50167;47.958;21.780;2023-01-19T04:40:54;2.07;;;1.50;;
63975;SDS011;50167;47.958;21.780;2023-01-19T04:43:21;3.83;;;2.03;;
63975;SDS011;50167;47.958;21.780;2023-01-19T04:45:48;4.83;;;1.97;;
63975;SDS011;50167;47.958;21.780;2023-01-19T04:48:15;2.10;;;1.40;;
63975;SDS011;50167;47.958;21.780;2023-01-19T04:50:42;2.70;;;1.50;;
63975;SDS011;50167;47.958;21.780;2023-01-19T04:53:09;2.57;;;1.43;;
63975;SDS011;50167;47.958;21.780;2023-01-19T04:55:37;3.93;;;2.27;;
63975;SDS011;50167;47.958;21.780;2023-01-19T04:58:03;2.80;;;1.63;;
63975;SDS011;50167;47.958;21.780;2023-01-19T05:00:29;3.70;;;2.07;;
63975;SDS011;50167;47.958;21.780;2023-01-19T05:02:56;2.43;;;1.73;;
63975;SDS011;50167;47.958;21.780;2023-01-19T05:05:22;3.17;;;1.97;;
63975;SDS011;50167;47.958;21.780;2023-01-19T05:07:48;3.80;;;2.10;;
63975;SDS011;50167;47.958;21.780;2023-01-19T05:10:14;4.77;;;1.97;;
63975;SDS011;50167;47.958;21.780;2023-01-19T05:12:41;3.07;;;1.73;;
63975;SDS011;50167;47.958;21.780;2023-01-19T05:15:08;4.60;;;2.50;;
63975;SDS011;50167;47.958;21.780;2023-01-19T05:17:35;5.63;;;2.40;;
63975;SDS011;50167;47.958;21.780;2023-01-19T05:20:02;3.20;;;2.20;;
63975;SDS011;50167;47.958;21.780;2023-01-19T05:22:30;4.90;;;2.53;;
63975;SDS011;50167;47.958;21.780;2023-01-19T05:24:56;3.30;;;1.80;;
63975;SDS011;50167;47.958;21.780;2023-01-19T05:27:22;2.07;;;1.50;;
63975;SDS011;50167;47.958;21.780;2023-01-19T05:29:48;3.30;;;2.10;;
63975;SDS011;50167;47.958;21.780;2023-01-19T05:32:14;2.50;;;1.60;;
63975;SDS011;50167;47.958;21.780;2023-01-19T05:34:41;3.53;;;1.73;;
63975;SDS011;50167;47.958;21.780;2023-01-19T05:37:07;4.93;;;2.03;;
63975;SDS011;50167;47.958;21.780;2023-01-19T05:39:34;3.87;;;1.80;;
63975;SDS011;50167;47.958;21.780;2023-01-19T05:42:00;5.37;;;2.37;;
63975;SDS011;50167;47.958;21.780;2023-01-19T05:44:26;4.40;;;2.17;;
63975;SDS011;50167;47.958;21.780;2023-01-19T05:46:52;5.10;;;3.23;;
63975;SDS011;50167;47.958;21.780;2023-01-19T05:49:18;26.00;;;13.17;;
63975;SDS011;50167;47.958;21.780;2023-01-19T05:51:44;18.30;;;10.17;;
63975;SDS011;50167;47.958;21.780;2023-01-19T05:54:11;17.07;;;9.97;;
63975;SDS011;50167;47.958;21.780;2023-01-19T05:56:39;12.10;;;7.10;;
63975;SDS011;50167;47.958;21.780;2023-01-19T05:59:06;10.63;;;5.47;;
63975;SDS011;50167;47.958;21.780;2023-01-19T06:01:33;7.43;;;5.63;;
63975;SDS011;50167;47.958;21.780;2023-01-19T06:04:01;7.33;;;5.20;;
63975;SDS011;50167;47.958;21.780;2023-01-19T06:06:28;6.27;;;4.17;;
63975;SDS011;50167;47.958;21.780;2023-01-19T06:08:54;7.00;;;4.67;;
63975;SDS011;50167;47.958;21.780;2023-01-19T06:11:20;6.30;;;4.50;;
63975;SDS011;50167;47.958;21.780;2023-01-19T06:13:47;7.33;;;4.97;;
63975;SDS011;50167;47.958;21.780;2023-01-19T06:16:13;13.20;;;7.67;;
63975;SDS011;50167;47.958;21.780;2023-01-19T06:18:40;15.93;;;12.07;;
63975;SDS011;50167;47.958;21.780;2023-01-19T06:21:07;12.00;;;10.47;;
63975;SDS011;50167;47.958;21.780;2023-01-19T06:23:34;17.67;;;11.73;;
63975;SDS011;50167;47.958;21.780;2023-01-19T06:26:01;11.00;;;7.83;;
63975;SDS011;50167;47.958;21.780;2023-01-19T06:28:28;12.00;;;8.10;;
63975;SDS011;50167;47.958;21.780;2023-01-19T06:30:55;13.93;;;8.60;;
63975;SDS011;50167;47.958;21.780;2023-01-19T06:33:22;16.23;;;9.83;;
63975;SDS011;50167;47.958;21.780;2023-01-19T06:35:50;14.40;;;8.97;;
63975;SDS011;50167;47.958;21.780;2023-01-19T06:38:17;9.73;;;7.40;;
63975;SDS011;50167;47.958;21.780;2023-01-19T06:40:44;12.10;;;6.20;;
63975;SDS011;50167;47.958;21.780;2023-01-19T06:43:13;8.97;;;6.13;;
63975;SDS011;50167;47.958;21.780;2023-01-19T06:45:39;10.33;;;6.53;;
63975;SDS011;50167;47.958;21.780;2023-01-19T06:48:05;13.13;;;7.67;;
63975;SDS011;50167;47.958;21.780;2023-01-19T06:50:33;14.57;;;8.30;;
63975;SDS011;50167;47.958;21.780;2023-01-19T06:52:59;11.37;;;7.30;;
63975;SDS011;50167;47.958;21.780;2023-01-19T06:55:27;14.23;;;7.03;;
63975;SDS011;50167;47.958;21.780;2023-01-19T06:57:56;12.87;;;6.53;;
63975;SDS011;50167;47.958;21.780;2023-01-19T07:00:24;11.78;;;7.10;;
63975;SDS011;50167;47.958;21.780;2023-01-19T07:02:50;9.33;;;6.70;;
63975;SDS011;50167;47.958;21.780;2023-01-19T07:05:17;12.67;;;6.00;;
63975;SDS011;50167;47.958;21.780;2023-01-19T07:07:44;9.33;;;6.37;;
63975;SDS011;50167;47.958;21.780;2023-01-19T07:10:12;9.80;;;5.47;;
63975;SDS011;50167;47.958;21.780;2023-01-19T07:12:39;10.37;;;7.13;;
63975;SDS011;50167;47.958;21.780;2023-01-19T07:15:07;10.77;;;7.17;;
63975;SDS011;50167;47.958;21.780;2023-01-19T07:17:36;10.67;;;5.97;;
63975;SDS011;50167;47.958;21.780;2023-01-19T07:20:02;13.47;;;7.10;;
63975;SDS011;50167;47.958;21.780;2023-01-19T07:22:34;18.33;;;7.63;;
63975;SDS011;50167;47.958;21.780;2023-01-19T07:25:00;14.80;;;8.27;;
63975;SDS011;50167;47.958;21.780;2023-01-19T07:27:26;13.97;;;7.87;;
63975;SDS011;50167;47.958;21.780;2023-01-19T07:29:53;15.27;;;9.23;;
63975;SDS011;50167;47.958;21.780;2023-01-19T07:32:19;13.13;;;8.03;;
63975;SDS011;50167;47.958;21.780;2023-01-19T07:34:46;16.70;;;8.00;;
63975;SDS011;50167;47.958;21.780;2023-01-19T07:37:13;15.27;;;8.53;;
63975;SDS011;50167;47.958;21.780;2023-01-19T07:39:39;14.00;;;8.20;;
63975;SDS011;50167;47.958;21.780;2023-01-19T07:42:05;20.73;;;10.27;;
63975;SDS011;50167;47.958;21.780;2023-01-19T07:44:31;26.00;;;10.60;;
63975;SDS011;50167;47.958;21.780;2023-01-19T07:46:58;18.83;;;11.93;;
63975;SDS011;50167;47.958;21.780;2023-01-19T07:49:24;16.60;;;9.90;;
63975;SDS011;50167;47.958;21.780;2023-01-19T07:51:50;15.93;;;9.90;;
63975;SDS011;50167;47.958;21.780;2023-01-19T07:54:16;15.97;;;10.33;;
63975;SDS011;50167;47.958;21.780;2023-01-19T07:56:55;13.97;;;8.57;;
63975;SDS011;50167;47.958;21.780;2023-01-19T07:59:21;11.50;;;6.37;;
63975;SDS011;50167;47.958;21.780;2023-01-19T08:01:47;10.23;;;5.10;;
63975;SDS011;50167;47.958;21.780;2023-01-19T08:04:14;15.30;;;5.77;;
63975;SDS011;50167;47.958;21.780;2023-01-19T08:06:42;10.67;;;5.53;;
63975;SDS011;50167;47.958;21.780;2023-01-19T08:09:09;10.93;;;4.93;;
63975;SDS011;50167;47.958;21.780;2023-01-19T08:11:37;11.10;;;6.30;;
63975;SDS011;50167;47.958;21.780;2023-01-19T08:14:03;19.00;;;10.87;;
63975;SDS011;50167;47.958;21.780;2023-01-19T08:16:30;14.80;;;9.47;;
63975;SDS011;50167;47.958;21.780;2023-01-19T08:18:56;13.10;;;8.53;;
63975;SDS011;50167;47.958;21.780;2023-01-19T08:21:22;15.13;;;8.90;;
63975;SDS011;50167;47.958;21.780;2023-01-19T08:23:56;12.27;;;7.47;;
63975;SDS011;50167;47.958;21.780;2023-01-19T08:26:27;9.93;;;7.43;;
63975;SDS011;50167;47.958;21.780;2023-01-19T08:29:03;11.93;;;8.77;;
63975;SDS011;50167;47.958;21.780;2023-01-19T08:31:31;13.27;;;8.37;;
63975;SDS011;50167;47.958;21.780;2023-01-19T08:33:57;16.83;;;10.90;;
63975;SDS011;50167;47.958;21.780;2023-01-19T08:36:23;21.60;;;11.50;;
63975;SDS011;50167;47.958;21.780;2023-01-19T08:38:50;21.30;;;13.37;;
63975;SDS011;50167;47.958;21.780;2023-01-19T08:41:17;21.70;;;13.17;;
63975;SDS011;50167;47.958;21.780;2023-01-19T08:43:43;21.63;;;13.47;;
63975;SDS011;50167;47.958;21.780;2023-01-19T08:46:10;26.50;;;14.70;;
63975;SDS011;50167;47.958;21.780;2023-01-19T08:48:36;17.77;;;14.93;;
63975;SDS011;50167;47.958;21.780;2023-01-19T08:51:02;17.83;;;15.40;;
63975;SDS011;50167;47.958;21.780;2023-01-19T08:53:29;21.27;;;16.23;;
63975;SDS011;50167;47.958;21.780;2023-01-19T08:55:55;22.67;;;17.00;;
63975;SDS011;50167;47.958;21.780;2023-01-19T08:58:24;22.27;;;14.07;;
63975;SDS011;50167;47.958;21.780;2023-01-19T09:00:51;17.87;;;11.43;;
63975;SDS011;50167;47.958;21.780;2023-01-19T09:03:18;17.77;;;11.80;;
63975;SDS011;50167;47.958;21.780;2023-01-19T09:05:46;19.47;;;9.20;;
63975;SDS011;50167;47.958;21.780;2023-01-19T09:08:13;14.93;;;7.83;;
63975;SDS011;50167;47.958;21.780;2023-01-19T09:10:48;17.13;;;10.83;;
63975;SDS011;50167;47.958;21.780;2023-01-19T09:13:13;19.30;;;13.10;;
63975;SDS011;50167;47.958;21.780;2023-01-19T09:15:40;23.47;;;10.33;;
63975;SDS011;50167;47.958;21.780;2023-01-19T09:18:08;12.97;;;8.00;;
63975;SDS011;50167;47.958;21.780;2023-01-19T09:25:12;18.10;;;7.77;;
63975;SDS011;50167;47.958;21.780;2023-01-19T09:27:38;9.63;;;6.83;;
63975;SDS011;50167;47.958;21.780;2023-01-19T09:30:04;11.83;;;6.17;;
63975;SDS011;50167;47.958;21.780;2023-01-19T09:32:32;11.93;;;6.67;;
63975;SDS011;50167;47.958;21.780;2023-01-19T09:34:59;8.17;;;6.13;;
63975;SDS011;50167;47.958;21.780;2023-01-19T09:37:25;11.30;;;6.87;;
63975;SDS011;50167;47.958;21.780;2023-01-19T09:39:52;10.73;;;6.77;;
63975;SDS011;50167;47.958;21.780;2023-01-19T09:45:12;9.20;;;6.72;;
63975;SDS011;50167;47.958;21.780;2023-01-19T09:48:00;5.20;;;4.20;;
63975;SDS011;50167;47.958;21.780;2023-01-19T09:50:32;8.80;;;4.63;;
63975;SDS011;50167;47.958;21.780;2023-01-19T09:53:04;6.53;;;4.80;;
63975;SDS011;50167;47.958;21.780;2023-01-19T09:55:39;8.70;;;5.70;;
63975;SDS011;50167;47.958;21.780;2023-01-19T09:58:13;6.77;;;3.87;;
63975;SDS011;50167;47.958;21.780;2023-01-19T10:00:51;9.10;;;4.77;;
63975;SDS011;50167;47.958;21.780;2023-01-19T10:03:18;7.20;;;4.07;;
63975;SDS011;50167;47.958;21.780;2023-01-19T10:05:49;6.63;;;3.83;;
63975;SDS011;50167;47.958;21.780;2023-01-19T10:11:19;31.00;;;25.20;;
63975;SDS011;50167;47.958;21.780;2023-01-19T10:14:03;13.60;;;7.77;;
63975;SDS011;50167;47.958;21.780;2023-01-19T10:16:51;12.93;;;7.67;;
63975;SDS011;50167;47.958;21.780;2023-01-19T10:19:48;12.97;;;5.70;;
63975;SDS011;50167;47.958;21.780;2023-01-19T10:22:22;13.53;;;6.75;;
63975;SDS011;50167;47.958;21.780;2023-01-19T10:24:52;7.80;;;5.53;;
63975;SDS011;50167;47.958;21.780;2023-01-19T10:27:30;9.83;;;6.10;;
63975;SDS011;50167;47.958;21.780;2023-01-19T10:29:59;38.57;;;26.20;;
63975;SDS011;50167;47.958;21.780;2023-01-19T10:32:31;8.73;;;6.57;;
63975;SDS011;50167;47.958;21.780;2023-01-19T10:34:57;5.13;;;3.67;;
63975;SDS011;50167;47.958;21.780;2023-01-19T10:40:04;4.00;;;2.00;;
63975;SDS011;50167;47.958;21.780;2023-01-19T10:42:39;2.60;;;1.83;;
63975;SDS011;50167;47.958;21.780;2023-01-19T10:47:53;2.47;;;1.60;;
63975;SDS011;50167;47.958;21.780;2023-01-19T10:50:28;2.10;;;1.50;;
63975;SDS011;50167;47.958;21.780;2023-01-19T10:52:58;3.03;;;1.50;;
63975;SDS011;50167;47.958;21.780;2023-01-19T10:55:38;3.12;;;1.50;;
63975;SDS011;50167;47.958;21.780;2023-01-19T10:58:05;3.97;;;2.00;;
63975;SDS011;50167;47.958;21.780;2023-01-19T11:00:37;3.43;;;1.67;;
63975;SDS011;50167;47.958;21.780;2023-01-19T11:08:47;5.00;;;2.13;;
63975;SDS011;50167;47.958;21.780;2023-01-19T11:11:16;3.30;;;2.07;;
63975;SDS011;50167;47.958;21.780;2023-01-19T11:14:05;3.27;;;2.27;;
63975;SDS011;50167;47.958;21.780;2023-01-19T11:16:36;7.73;;;3.43;;
63975;SDS011;50167;47.958;21.780;2023-01-19T11:19:04;3.53;;;2.67;;
63975;SDS011;50167;47.958;21.780;2023-01-19T11:21:33;4.20;;;2.93;;
63975;SDS011;50167;47.958;21.780;2023-01-19T11:24:00;3.67;;;3.17;;
63975;SDS011;50167;47.958;21.780;2023-01-19T11:26:38;6.10;;;3.35;;
63975;SDS011;50167;47.958;21.780;2023-01-19T11:29:01;5.12;;;2.62;;
63975;SDS011;50167;47.958;21.780;2023-01-19T11:34:00;3.80;;;2.77;;
63975;SDS011;50167;47.958;21.780;2023-01-19T11:36:35;5.57;;;3.27;;
63975;SDS011;50167;47.958;21.780;2023-01-19T11:39:20;7.07;;;5.03;;
63975;SDS011;50167;47.958;21.780;2023-01-19T11:41:51;13.63;;;9.87;;
63975;SDS011;50167;47.958;21.780;2023-01-19T11:44:27;8.93;;;6.23;;
63975;SDS011;50167;47.958;21.780;2023-01-19T11:46:54;76.53;;;46.43;;
63975;SDS011;50167;47.958;21.780;2023-01-19T11:49:32;11.45;;;7.17;;
63975;SDS011;50167;47.958;21.780;2023-01-19T11:52:24;14.17;;;7.40;;
63975;SDS011;50167;47.958;21.780;2023-01-19T11:57:36;31.00;;;18.00;;
63975;SDS011;50167;47.958;21.780;2023-01-19T12:00:16;11.57;;;5.10;;
63975;SDS011;50167;47.958;21.780;2023-01-19T12:03:02;5.60;;;4.33;;
63975;SDS011;50167;47.958;21.780;2023-01-19T12:05:31;13.33;;;8.03;;
63975;SDS011;50167;47.958;21.780;2023-01-19T12:08:01;4.93;;;3.23;;
63975;SDS011;50167;47.958;21.780;2023-01-19T12:10:31;3.22;;;2.83;;
63975;SDS011;50167;47.958;21.780;2023-01-19T12:13:01;16.77;;;14.00;;
63975;SDS011;50167;47.958;21.780;2023-01-19T12:18:21;4.80;;;3.65;;
63975;SDS011;50167;47.958;21.780;2023-01-19T12:27:57;8.70;;;5.53;;
63975;SDS011;50167;47.958;21.780;2023-01-19T12:30:25;31.03;;;18.70;;
63975;SDS011;50167;47.958;21.780;2023-01-19T12:36:01;21.83;;;15.07;;
63975;SDS011;50167;47.958;21.780;2023-01-19T12:38:54;25.77;;;17.07;;
63975;SDS011;50167;47.958;21.780;2023-01-19T12:46:47;34.40;;;29.07;;
63975;SDS011;50167;47.958;21.780;2023-01-19T13:00:48;7.83;;;5.50;;
63975;SDS011;50167;47.958;21.780;2023-01-19T13:05:56;3.43;;;2.97;;
63975;SDS011;50167;47.958;21.780;2023-01-19T13:08:23;31.93;;;17.33;;
63975;SDS011;50167;47.958;21.780;2023-01-19T13:32:00;10.93;;;7.07;;
63975;SDS011;50167;47.958;21.780;2023-01-19T13:34:44;9.07;;;5.67;;
63975;SDS011;50167;47.958;21.780;2023-01-19T13:37:25;36.20;;;24.55;;
63975;SDS011;50167;47.958;21.780;2023-01-19T13:40:02;9.77;;;7.00;;
63975;SDS011;50167;47.958;21.780;2023-01-19T13:42:36;7.33;;;5.00;;
63975;SDS011;50167;47.958;21.780;2023-01-19T13:45:15;10.27;;;8.03;;
63975;SDS011;50167;47.958;21.780;2023-01-19T13:47:56;7.50;;;6.73;;
63975;SDS011;50167;47.958;21.780;2023-01-19T13:50:28;8.53;;;6.10;;
63975;SDS011;50167;47.958;21.780;2023-01-19T13:52:57;12.57;;;8.00;;
63975;SDS011;50167;47.958;21.780;2023-01-19T13:55:27;7.07;;;5.07;;
63975;SDS011;50167;47.958;21.780;2023-01-19T13:57:55;12.77;;;9.20;;
63975;SDS011;50167;47.958;21.780;2023-01-19T14:10:43;9.30;;;8.07;;
63975;SDS011;50167;47.958;21.780;2023-01-19T14:13:34;8.67;;;6.37;;
63975;SDS011;50167;47.958;21.780;2023-01-19T14:16:07;5.87;;;4.70;;
63975;SDS011;50167;47.958;21.780;2023-01-19T14:18:40;6.80;;;4.17;;
63975;SDS011;50167;47.958;21.780;2023-01-19T14:26:42;7.58;;;4.15;;
63975;SDS011;50167;47.958;21.780;2023-01-19T14:29:17;8.27;;;5.03;;
63975;SDS011;50167;47.958;21.780;2023-01-19T14:31:51;5.87;;;4.43;;
63975;SDS011;50167;47.958;21.780;2023-01-19T14:34:31;7.87;;;4.83;;
63975;SDS011;50167;47.958;21.780;2023-01-19T14:36:59;9.13;;;4.60;;
63975;SDS011;50167;47.958;21.780;2023-01-19T14:39:28;7.80;;;5.80;;
63975;SDS011;50167;47.958;21.780;2023-01-19T14:41:58;5.40;;;3.75;;
63975;SDS011;50167;47.958;21.780;2023-01-19T14:44:29;6.45;;;4.95;;
63975;SDS011;50167;47.958;21.780;2023-01-19T14:47:02;7.33;;;4.83;;
63975;SDS011;50167;47.958;21.780;2023-01-19T14:49:34;10.03;;;6.77;;
63975;SDS011;50167;47.958;21.780;2023-01-19T14:52:05;11.53;;;7.17;;
63975;SDS011;50167;47.958;21.780;2023-01-19T14:54:48;17.50;;;12.57;;
63975;SDS011;50167;47.958;21.780;2023-01-19T14:57:16;21.00;;;15.63;;
63975;SDS011;50167;47.958;21.780;2023-01-19T14:59:42;23.70;;;17.10;;
63975;SDS011;50167;47.958;21.780;2023-01-19T15:02:10;30.27;;;18.63;;
63975;SDS011;50167;47.958;21.780;2023-01-19T15:04:37;24.97;;;17.90;;
63975;SDS011;50167;47.958;21.780;2023-01-19T15:07:03;24.13;;;17.63;;
63975;SDS011;50167;47.958;21.780;2023-01-19T15:09:30;19.80;;;15.47;;
63975;SDS011;50167;47.958;21.780;2023-01-19T15:11:58;16.30;;;12.97;;
63975;SDS011;50167;47.958;21.780;2023-01-19T15:14:25;19.50;;;13.37;;
63975;SDS011;50167;47.958;21.780;2023-01-19T15:16:52;20.43;;;16.03;;
63975;SDS011;50167;47.958;21.780;2023-01-19T15:19:18;26.20;;;19.67;;
63975;SDS011;50167;47.958;21.780;2023-01-19T15:21:45;47.57;;;35.50;;
63975;SDS011;50167;47.958;21.780;2023-01-19T15:27:18;44.70;;;35.63;;
63975;SDS011;50167;47.958;21.780;2023-01-19T15:29:46;35.77;;;22.20;;
63975;SDS011;50167;47.958;21.780;2023-01-19T15:32:12;35.80;;;28.27;;
63975;SDS011;50167;47.958;21.780;2023-01-19T15:34:40;32.87;;;22.77;;
63975;SDS011;50167;47.958;21.780;2023-01-19T15:37:06;21.37;;;15.63;;
63975;SDS011;50167;47.958;21.780;2023-01-19T15:39:33;15.93;;;11.07;;
63975;SDS011;50167;47.958;21.780;2023-01-19T15:42:00;10.60;;;8.50;;
63975;SDS011;50167;47.958;21.780;2023-01-19T15:44:26;12.23;;;9.47;;
63975;SDS011;50167;47.958;21.780;2023-01-19T15:46:52;11.43;;;9.00;;
63975;SDS011;50167;47.958;21.780;2023-01-19T15:49:18;12.70;;;9.63;;
63975;SDS011;50167;47.958;21.780;2023-01-19T15:51:45;10.60;;;8.10;;
63975;SDS011;50167;47.958;21.780;2023-01-19T15:54:11;10.33;;;7.20;;
63975;SDS011;50167;47.958;21.780;2023-01-19T15:56:39;9.13;;;6.67;;
63975;SDS011;50167;47.958;21.780;2023-01-19T15:59:06;8.93;;;6.70;;
63975;SDS011;50167;47.958;21.780;2023-01-19T16:01:33;9.57;;;7.63;;
63975;SDS011;50167;47.958;21.780;2023-01-19T16:04:00;11.13;;;8.47;;
63975;SDS011;50167;47.958;21.780;2023-01-19T16:06:30;9.33;;;7.25;;
63975;SDS011;50167;47.958;21.780;2023-01-19T16:08:56;8.73;;;7.30;;
63975;SDS011;50167;47.958;21.780;2023-01-19T16:11:31;7.23;;;4.90;;
63975;SDS011;50167;47.958;21.780;2023-01-19T16:13:59;5.70;;;4.10;;
63975;SDS011;50167;47.958;21.780;2023-01-19T16:16:25;5.50;;;4.20;;
63975;SDS011;50167;47.958;21.780;2023-01-19T16:18:54;7.00;;;4.93;;
63975;SDS011;50167;47.958;21.780;2023-01-19T16:21:21;6.60;;;5.67;;
63975;SDS011;50167;47.958;21.780;2023-01-19T16:23:48;6.33;;;5.10;;
63975;SDS011;50167;47.958;21.780;2023-01-19T16:26:25;9.83;;;6.10;;
63975;SDS011;50167;47.958;21.780;2023-01-19T16:28:55;6.73;;;4.73;;
63975;SDS011;50167;47.958;21.780;2023-01-19T16:31:30;8.77;;;6.40;;
63975;SDS011;50167;47.958;21.780;2023-01-19T16:33:56;10.83;;;6.53;;
63975;SDS011;50167;47.958;21.780;2023-01-19T16:36:23;16.07;;;9.20;;
63975;SDS011;50167;47.958;21.780;2023-01-19T16:38:52;13.50;;;10.17;;
63975;SDS011;50167;47.958;21.780;2023-01-19T16:41:21;8.47;;;6.10;;
63975;SDS011;50167;47.958;21.780;2023-01-19T16:43:54;10.00;;;7.77;;
63975;SDS011;50167;47.958;21.780;2023-01-19T16:46:23;10.40;;;6.70;;